createdAt,value
2019-06-20T00:01:13.398Z,21.54
2019-06-20T00:03:43.195Z,21.55
2019-06-20T00:06:13.014Z,21.60
2019-06-20T00:08:42.895Z,21.67
2019-06-20T00:11:12.764Z,21.68
2019-06-20T00:13:42.751Z,21.77
2019-06-20T00:16:12.729Z,21.67
2019-06-20T00:18:42.481Z,21.56
2019-06-20T00:21:12.106Z,21.56
2019-06-20T00:23:43.154Z,21.54
2019-06-20T00:26:13.181Z,21.49
2019-06-20T00:28:42.997Z,21.43
2019-06-20T00:31:12.955Z,21.37
2019-06-20T00:33:42.823Z,21.40
2019-06-20T00:36:12.747Z,21.35
2019-06-20T00:38:42.578Z,21.13
2019-06-20T00:41:12.457Z,21.21
2019-06-20T00:43:42.374Z,21.15
2019-06-20T00:46:12.374Z,21.14
2019-06-20T00:48:42.214Z,21.13
2019-06-20T00:51:12.114Z,20.93
2019-06-20T00:53:41.778Z,20.96
2019-06-20T00:56:11.566Z,21.09
2019-06-20T00:58:41.261Z,21.05
2019-06-20T01:01:10.996Z,21.17
2019-06-20T01:03:40.787Z,21.17
2019-06-20T01:06:10.722Z,21.18
2019-06-20T01:08:40.680Z,21.21
2019-06-20T01:11:10.479Z,21.23
2019-06-20T01:13:40.370Z,21.23
2019-06-20T01:16:10.409Z,21.18
2019-06-20T01:18:40.310Z,21.21
2019-06-20T01:21:10.328Z,21.20
2019-06-20T01:23:40.387Z,21.15
2019-06-20T01:26:10.161Z,21.15
2019-06-20T01:28:40.075Z,21.11
2019-06-20T01:31:09.988Z,21.21
2019-06-20T01:33:39.689Z,20.84
2019-06-20T01:36:09.520Z,20.84
2019-06-20T01:38:39.602Z,20.81
2019-06-20T01:41:09.659Z,20.51
2019-06-20T01:43:49.997Z,20.51
2019-06-20T01:46:13.294Z,20.52
2019-06-20T01:48:43.192Z,20.42
2019-06-20T01:51:13.011Z,20.42
2019-06-20T01:53:43.988Z,20.40
2019-06-20T01:56:13.768Z,20.28
2019-06-20T01:58:43.464Z,20.08
2019-06-20T02:01:13.445Z,20.18
2019-06-20T02:03:43.196Z,20.05
2019-06-20T02:06:13.014Z,20.05
2019-06-20T02:08:42.869Z,20.14
2019-06-20T02:11:12.642Z,20.20
2019-06-20T02:13:42.649Z,20.16
2019-06-20T02:16:12.536Z,20.28
2019-06-20T02:18:42.409Z,20.34
2019-06-20T02:21:12.227Z,20.38
2019-06-20T02:23:42.201Z,20.18
2019-06-20T02:26:11.930Z,20.18
2019-06-20T02:28:41.841Z,19.86
2019-06-20T02:31:11.614Z,19.86
2019-06-20T02:33:44.352Z,19.95
2019-06-20T02:36:14.179Z,19.87
2019-06-20T02:38:44.126Z,19.65
2019-06-20T02:41:14.092Z,19.54
2019-06-20T02:43:44.241Z,19.75
2019-06-20T02:46:15.288Z,19.75
2019-06-20T02:48:45.085Z,19.91
2019-06-20T02:51:15.491Z,19.91
2019-06-20T02:53:45.565Z,19.94
2019-06-20T02:56:15.255Z,20.13
2019-06-20T02:58:45.169Z,20.27
2019-06-20T03:01:15.251Z,20.29
2019-06-20T03:03:45.027Z,20.42
2019-06-20T03:06:14.795Z,20.59
2019-06-20T03:08:44.463Z,20.61
2019-06-20T03:11:14.355Z,20.61
2019-06-20T03:13:44.165Z,20.71
2019-06-20T03:16:14.119Z,20.79
2019-06-20T03:18:44.045Z,20.70
2019-06-20T03:21:14.056Z,20.75
2019-06-20T03:23:43.834Z,20.51
2019-06-20T03:26:15.010Z,20.24
2019-06-20T03:28:44.779Z,20.24
2019-06-20T03:31:14.492Z,20.05
2019-06-20T03:33:44.383Z,19.88
2019-06-20T03:36:14.214Z,19.88
2019-06-20T03:38:45.345Z,19.88
2019-06-20T03:41:16.337Z,20.08
2019-06-20T03:43:46.112Z,20.08
2019-06-20T03:46:15.929Z,20.14
2019-06-20T03:48:46.996Z,20.16
2019-06-20T03:51:16.934Z,20.16
2019-06-20T03:53:46.797Z,20.30
2019-06-20T03:56:18.267Z,20.37
2019-06-20T03:58:48.191Z,20.45
2019-06-20T04:01:17.986Z,20.64
2019-06-20T04:03:47.811Z,20.76
2019-06-20T04:06:17.545Z,20.76
2019-06-20T04:08:47.408Z,20.65
2019-06-20T04:11:17.375Z,20.75
2019-06-20T04:13:47.186Z,20.84
2019-06-20T04:16:17.253Z,20.91
2019-06-20T04:18:47.004Z,21.06
2019-06-20T04:21:16.844Z,21.25
2019-06-20T04:23:46.682Z,21.56
2019-06-20T04:26:16.437Z,21.69
2019-06-20T04:28:46.089Z,22.01
2019-06-20T04:31:15.963Z,22.17
2019-06-20T04:33:45.624Z,22.03
2019-06-20T04:36:15.516Z,22.13
2019-06-20T04:38:45.370Z,22.38
2019-06-20T04:41:15.385Z,22.23
2019-06-20T04:43:45.135Z,22.26
2019-06-20T04:46:23.851Z,22.28
2019-06-20T04:48:53.584Z,22.56
2019-06-20T04:51:23.439Z,22.59
2019-06-20T04:53:53.278Z,22.54
2019-06-20T04:56:23.254Z,22.53
2019-06-20T04:58:53.066Z,23.02
2019-06-20T05:01:23.009Z,23.01
2019-06-20T05:03:52.870Z,22.87
2019-06-20T05:06:22.538Z,22.87
2019-06-20T05:08:52.343Z,22.62
2019-06-20T05:11:22.351Z,22.77
2019-06-20T05:13:52.302Z,23.12
2019-06-20T05:16:22.169Z,23.21
2019-06-20T05:18:52.183Z,23.18
2019-06-20T05:21:22.550Z,23.36
2019-06-20T05:23:52.314Z,23.38
2019-06-20T05:26:22.141Z,23.54
2019-06-20T05:28:52.066Z,23.84
2019-06-20T05:31:22.015Z,24.18
2019-06-20T05:33:51.837Z,24.01
2019-06-20T05:36:21.710Z,24.14
2019-06-20T05:38:51.730Z,24.63
2019-06-20T05:41:21.545Z,24.86
2019-06-20T05:43:51.438Z,25.23
2019-06-20T05:46:21.222Z,25.47
2019-06-20T05:48:51.088Z,25.31
2019-06-20T05:51:21.014Z,24.85
2019-06-20T05:53:51.080Z,24.87
2019-06-20T05:56:20.856Z,25.42
2019-06-20T05:58:50.684Z,25.38
2019-06-20T06:01:20.518Z,25.13
2019-06-20T06:03:51.328Z,25.41
2019-06-20T06:06:21.114Z,25.16
2019-06-20T06:08:51.922Z,25.17
2019-06-20T06:11:21.663Z,24.98
2019-06-20T06:13:51.494Z,25.06
2019-06-20T06:16:26.885Z,25.68
2019-06-20T06:18:53.048Z,25.93
2019-06-20T06:21:22.952Z,26.42
2019-06-20T06:23:52.667Z,26.56
2019-06-20T06:26:22.454Z,26.85
2019-06-20T06:28:52.447Z,27.09
2019-06-20T06:31:22.343Z,27.43
2019-06-20T06:33:52.251Z,27.60
2019-06-20T06:36:23.543Z,27.79
2019-06-20T06:38:53.305Z,28.13
2019-06-20T06:41:23.115Z,28.25
2019-06-20T06:43:54.076Z,28.38
2019-06-20T06:46:23.867Z,28.23
2019-06-20T06:48:53.595Z,28.42
2019-06-20T06:51:23.435Z,28.62
2019-06-20T06:53:54.537Z,28.77
2019-06-20T06:56:24.351Z,28.53
2019-06-20T06:58:53.979Z,28.74
2019-06-20T07:01:23.804Z,29.03
2019-06-20T07:03:53.733Z,28.81
2019-06-20T07:06:23.739Z,29.01
2019-06-20T07:08:53.628Z,29.32
2019-06-20T07:11:23.426Z,29.55
2019-06-20T07:13:53.184Z,29.69
2019-06-20T07:16:23.079Z,29.77
2019-06-20T07:18:53.970Z,29.91
2019-06-20T07:21:23.819Z,29.95
2019-06-20T07:23:53.535Z,30.04
2019-06-20T07:26:23.526Z,30.14
2019-06-20T07:28:53.422Z,30.11
2019-06-20T07:31:23.443Z,30.02
2019-06-20T07:33:53.267Z,30.07
2019-06-20T07:36:23.280Z,29.94
2019-06-20T07:38:53.208Z,30.16
2019-06-20T07:41:23.458Z,30.42
2019-06-20T07:43:53.531Z,30.60
2019-06-20T07:46:23.306Z,30.62
2019-06-20T07:48:53.181Z,30.65
2019-06-20T07:51:23.074Z,30.42
2019-06-20T07:53:52.807Z,30.57
2019-06-20T07:56:22.749Z,30.59
2019-06-20T07:58:52.725Z,30.42
2019-06-20T08:01:22.552Z,30.51
2019-06-20T08:03:52.239Z,31.01
2019-06-20T08:06:22.043Z,31.42
2019-06-20T08:08:52.085Z,31.57
2019-06-20T08:11:22.183Z,31.65
2019-06-20T08:13:52.040Z,31.42
2019-06-20T08:16:21.933Z,31.51
2019-06-20T08:18:53.093Z,31.97
2019-06-20T08:21:22.990Z,32.32
2019-06-20T08:23:53.001Z,32.75
2019-06-20T08:26:22.989Z,32.76
2019-06-20T08:29:07.347Z,32.46
2019-06-20T08:31:24.952Z,32.20
2019-06-20T08:33:55.972Z,32.33
2019-06-20T08:36:26.423Z,32.38
2019-06-20T08:38:57.540Z,32.70
2019-06-20T08:41:27.877Z,32.95
2019-06-20T08:43:58.454Z,33.05
2019-06-20T08:46:29.273Z,33.01
2019-06-20T08:48:59.508Z,33.02
2019-06-20T08:51:29.307Z,32.95
2019-06-20T08:53:59.284Z,32.61
2019-06-20T08:56:29.170Z,30.97
2019-06-20T08:58:58.901Z,30.86
2019-06-20T09:01:28.950Z,31.03
2019-06-20T09:03:59.871Z,31.11
2019-06-20T09:06:29.885Z,32.03
2019-06-20T09:09:00.073Z,31.73
2019-06-20T09:11:29.971Z,30.70
2019-06-20T09:14:01.363Z,30.91
2019-06-20T09:16:31.391Z,31.95
2019-06-20T09:19:02.545Z,32.31
2019-06-20T09:21:32.343Z,32.26
2019-06-20T09:24:02.057Z,32.31
2019-06-20T09:26:32.069Z,32.04
2019-06-20T09:29:02.922Z,31.58
2019-06-20T09:31:33.486Z,32.10
2019-06-20T09:34:05.313Z,31.08
2019-06-20T09:36:36.664Z,31.30
2019-06-20T09:39:08.276Z,32.31
2019-06-20T09:41:38.156Z,32.79
2019-06-20T09:44:17.851Z,32.86
2019-06-20T09:46:52.328Z,33.36
2019-06-20T09:49:24.284Z,33.30
2019-06-20T09:51:56.627Z,32.45
2019-06-20T09:54:25.604Z,32.06
2019-06-20T09:56:56.890Z,32.27
2019-06-20T09:59:28.061Z,31.74
2019-06-20T10:01:58.892Z,32.53
2019-06-20T10:04:28.862Z,33.10
2019-06-20T10:06:58.619Z,33.26
2019-06-20T10:09:28.490Z,33.67
2019-06-20T10:11:58.356Z,33.99
2019-06-20T10:14:28.412Z,33.95
2019-06-20T10:16:58.376Z,34.01
2019-06-20T10:19:28.416Z,34.31
2019-06-20T10:21:58.337Z,34.56
2019-06-20T10:24:28.275Z,34.66
2019-06-20T10:26:58.135Z,34.41
2019-06-20T10:29:28.229Z,34.26
2019-06-20T10:31:58.178Z,34.83
2019-06-20T10:34:31.068Z,34.50
2019-06-20T10:36:59.939Z,34.55
2019-06-20T10:39:29.745Z,34.84
2019-06-20T10:41:59.697Z,34.78
2019-06-20T10:44:29.531Z,35.13
2019-06-20T10:46:59.393Z,35.45
2019-06-20T10:49:29.240Z,33.40
2019-06-20T10:51:59.216Z,34.32
2019-06-20T10:54:30.435Z,34.95
2019-06-20T10:57:01.669Z,35.39
2019-06-20T10:59:34.572Z,35.69
2019-06-20T11:02:07.230Z,35.94
2019-06-20T11:04:37.120Z,36.00
2019-06-20T11:07:07.890Z,35.89
2019-06-20T11:09:39.619Z,34.83
2019-06-20T11:12:09.940Z,33.61
2019-06-20T11:14:40.341Z,33.21
2019-06-20T11:17:10.191Z,33.16
2019-06-20T11:19:41.606Z,32.86
2019-06-20T11:22:11.658Z,32.78
2019-06-20T11:24:42.945Z,32.06
2019-06-20T11:27:12.938Z,32.46
2019-06-20T11:29:44.099Z,32.72
2019-06-20T11:32:15.254Z,32.35
2019-06-20T11:34:45.026Z,32.23
2019-06-20T11:37:15.954Z,32.55
2019-06-20T11:39:47.405Z,32.49
2019-06-20T11:42:17.213Z,32.65
2019-06-20T11:44:48.322Z,33.19
2019-06-20T11:47:20.573Z,33.53
2019-06-20T11:49:49.592Z,33.96
2019-06-20T11:52:19.520Z,34.53
2019-06-20T11:54:49.304Z,34.93
2019-06-20T11:57:19.189Z,35.25
2019-06-20T11:59:49.124Z,35.98
2019-06-20T12:02:19.188Z,36.11
2019-06-20T12:04:49.209Z,36.82
2019-06-20T12:07:19.185Z,37.99
2019-06-20T12:09:49.224Z,38.44
2019-06-20T12:12:19.054Z,38.99
2019-06-20T12:14:48.937Z,39.08
2019-06-20T12:17:19.034Z,38.01
2019-06-20T12:19:48.896Z,37.20
2019-06-20T12:22:18.778Z,36.28
2019-06-20T12:24:48.945Z,35.36
2019-06-20T12:27:18.809Z,34.42
2019-06-20T12:29:49.333Z,33.97
2019-06-20T12:32:21.510Z,33.39
2019-06-20T12:34:52.722Z,33.19
2019-06-20T12:37:22.463Z,33.02
2019-06-20T12:39:52.391Z,32.60
2019-06-20T12:42:23.753Z,32.28
2019-06-20T12:44:53.655Z,30.30
2019-06-20T12:47:24.841Z,29.15
2019-06-20T12:49:54.742Z,28.92
2019-06-20T12:52:24.640Z,28.60
2019-06-20T12:54:54.534Z,28.60
2019-06-20T12:57:34.104Z,28.69
2019-06-20T13:00:05.050Z,28.46
2019-06-20T13:02:36.451Z,27.94
2019-06-20T13:05:06.783Z,28.03
2019-06-20T13:07:38.596Z,28.35
2019-06-20T13:10:08.883Z,28.60
2019-06-20T13:12:40.661Z,28.94
2019-06-20T13:15:10.713Z,28.56
2019-06-20T13:17:41.955Z,28.08
2019-06-20T13:20:12.787Z,27.83
2019-06-20T13:22:42.928Z,27.75
2019-06-20T13:25:13.985Z,28.17
2019-06-20T13:27:43.941Z,28.51
2019-06-20T13:30:14.176Z,28.58
2019-06-20T13:32:45.407Z,28.50
2019-06-20T13:35:16.147Z,28.37
2019-06-20T13:37:47.697Z,28.02
2019-06-20T13:40:19.300Z,28.04
2019-06-20T13:42:50.349Z,27.90
2019-06-20T13:45:22.994Z,28.00
2019-06-20T13:47:53.590Z,28.24
2019-06-20T13:50:24.551Z,28.08
2019-06-20T13:52:54.917Z,28.04
2019-06-20T13:55:25.335Z,28.01
2019-06-20T13:57:55.270Z,28.15
2019-06-20T14:00:27.296Z,28.50
2019-06-20T14:02:57.294Z,28.70
2019-06-20T14:05:27.136Z,28.38
2019-06-20T14:07:56.998Z,28.34
2019-06-20T14:10:26.839Z,28.56
2019-06-20T14:12:56.500Z,28.68
2019-06-20T14:15:26.461Z,28.61
2019-06-20T14:17:56.280Z,28.68
2019-06-20T14:20:26.983Z,28.37
2019-06-20T14:22:57.035Z,28.58
2019-06-20T14:25:26.783Z,28.59
2019-06-20T14:27:56.762Z,28.52
2019-06-20T14:30:26.965Z,28.57
2019-06-20T14:32:56.968Z,28.76
2019-06-20T14:35:26.782Z,28.53
2019-06-20T14:37:56.722Z,28.48
2019-06-20T14:40:26.593Z,28.42
2019-06-20T14:42:56.204Z,28.36
2019-06-20T14:45:26.211Z,28.47
2019-06-20T14:47:56.056Z,28.31
2019-06-20T14:50:25.967Z,29.10
2019-06-20T14:52:55.817Z,29.87
2019-06-20T14:55:25.583Z,30.96
2019-06-20T14:57:55.400Z,30.93
2019-06-20T15:00:26.973Z,31.51
2019-06-20T15:02:58.669Z,32.51
2019-06-20T15:05:28.521Z,32.37
2019-06-20T15:08:13.819Z,31.48
2019-06-20T15:10:43.816Z,31.80
2019-06-20T15:13:13.428Z,31.21
2019-06-20T15:15:45.899Z,30.89
2019-06-20T15:18:14.698Z,31.29
2019-06-20T15:20:45.244Z,30.57
2019-06-20T15:23:16.107Z,29.86
2019-06-20T15:25:47.080Z,30.24
2019-06-20T15:28:17.338Z,29.43
2019-06-20T15:30:48.883Z,29.16
2019-06-20T15:33:18.728Z,30.25
2019-06-20T15:35:49.235Z,30.60
2019-06-20T15:38:21.679Z,30.39
2019-06-20T15:40:51.658Z,30.86
2019-06-20T15:43:21.351Z,30.83
2019-06-20T15:45:52.089Z,31.61
2019-06-20T15:48:21.805Z,31.65
2019-06-20T15:50:51.609Z,30.67
2019-06-20T15:53:21.464Z,30.87
2019-06-20T15:55:51.256Z,31.01
2019-06-20T15:58:21.057Z,31.02
2019-06-20T16:00:52.020Z,31.38
2019-06-20T16:03:21.706Z,31.51
2019-06-20T16:05:51.521Z,32.41
2019-06-20T16:08:21.488Z,30.85
2019-06-20T16:10:51.355Z,32.27
2019-06-20T16:13:21.182Z,32.47
2019-06-20T16:15:51.331Z,32.71
2019-06-20T16:18:22.353Z,32.80
2019-06-20T16:20:52.238Z,30.91
2019-06-20T16:23:21.976Z,30.41
2019-06-20T16:25:51.848Z,31.18
2019-06-20T16:28:21.714Z,31.09
2019-06-20T16:31:05.192Z,31.92
2019-06-20T16:33:25.432Z,32.82
2019-06-20T16:35:54.649Z,32.95
2019-06-20T16:38:24.333Z,32.69
2019-06-20T16:40:54.208Z,32.90
2019-06-20T16:43:24.060Z,32.88
2019-06-20T16:45:53.970Z,33.01
2019-06-20T16:48:23.863Z,32.01
2019-06-20T16:50:53.521Z,31.17
2019-06-20T16:53:23.580Z,30.59
2019-06-20T16:55:53.457Z,30.38
2019-06-20T16:58:23.383Z,30.42
2019-06-20T17:00:53.435Z,29.94
2019-06-20T17:03:23.315Z,29.97
2019-06-20T17:05:53.208Z,29.06
2019-06-20T17:08:23.032Z,28.60
2019-06-20T17:10:52.746Z,28.55
2019-06-20T17:13:22.712Z,28.90
2019-06-20T17:15:52.742Z,29.53
2019-06-20T17:18:22.644Z,29.52
2019-06-20T17:20:52.527Z,29.27
2019-06-20T17:23:22.547Z,29.77
2019-06-20T17:25:52.429Z,29.58
2019-06-20T17:28:22.471Z,28.19
2019-06-20T17:30:52.399Z,28.72
2019-06-20T17:33:22.277Z,28.41
2019-06-20T17:35:52.097Z,28.55
2019-06-20T17:38:21.740Z,28.21
2019-06-20T17:40:51.614Z,28.43
2019-06-20T17:43:21.157Z,28.13
2019-06-20T17:45:50.845Z,28.22
2019-06-20T17:48:20.744Z,28.22
2019-06-20T17:50:50.577Z,28.06
2019-06-20T17:53:20.300Z,27.98
2019-06-20T17:55:50.152Z,27.89
2019-06-20T17:58:19.935Z,27.84
2019-06-20T18:00:49.883Z,27.71
2019-06-20T18:03:19.772Z,27.67
2019-06-20T18:05:49.740Z,27.70
2019-06-20T18:08:19.527Z,27.66
2019-06-20T18:10:49.528Z,27.32
2019-06-20T18:13:19.385Z,26.84
2019-06-20T18:15:49.186Z,26.80
2019-06-20T18:18:18.961Z,26.62
2019-06-20T18:20:48.883Z,26.52
2019-06-20T18:23:18.846Z,26.41
2019-06-20T18:25:48.664Z,26.17
2019-06-20T18:28:18.435Z,26.27
2019-06-20T18:30:48.421Z,26.19
2019-06-20T18:33:18.197Z,26.12
2019-06-20T18:35:48.054Z,26.14
2019-06-20T18:38:17.775Z,26.24
2019-06-20T18:40:48.021Z,26.29
2019-06-20T18:43:17.806Z,26.32
2019-06-20T18:45:47.564Z,26.28
2019-06-20T18:48:17.361Z,26.28
2019-06-20T18:50:47.274Z,26.28
2019-06-20T18:53:17.233Z,26.27
2019-06-20T18:55:47.220Z,26.17
2019-06-20T18:58:18.452Z,26.22
2019-06-20T19:00:48.185Z,26.07
2019-06-20T19:03:21.126Z,26.12
2019-06-20T19:05:49.490Z,25.96
2019-06-20T19:08:19.326Z,25.84
2019-06-20T19:10:49.040Z,25.67
2019-06-20T19:13:18.700Z,25.58
2019-06-20T19:15:48.472Z,25.56
2019-06-20T19:18:18.273Z,25.65
2019-06-20T19:20:49.238Z,25.68
2019-06-20T19:23:19.058Z,25.61
2019-06-20T19:25:48.963Z,25.55
2019-06-20T19:28:18.924Z,25.55
2019-06-20T19:30:50.390Z,25.52
2019-06-20T19:33:20.350Z,25.16
2019-06-20T19:35:51.407Z,25.19
2019-06-20T19:38:21.220Z,25.06
2019-06-20T19:40:51.932Z,25.08
2019-06-20T19:43:21.795Z,24.94
2019-06-20T19:45:51.664Z,24.94
2019-06-20T19:48:21.496Z,24.95
2019-06-20T19:50:51.319Z,25.07
2019-06-20T19:53:21.070Z,25.11
2019-06-20T19:55:50.867Z,25.11
2019-06-20T19:58:20.841Z,24.78
2019-06-20T20:00:50.655Z,24.28
2019-06-20T20:03:20.340Z,23.92
2019-06-20T20:05:50.780Z,23.97
2019-06-20T20:08:21.537Z,24.16
2019-06-20T20:10:51.636Z,24.13
2019-06-20T20:13:21.686Z,23.98
2019-06-20T20:15:53.266Z,23.86
2019-06-20T20:18:23.135Z,24.00
2019-06-20T20:20:52.788Z,24.02
2019-06-20T20:23:22.590Z,24.06
2019-06-20T20:25:52.571Z,24.17
2019-06-20T20:28:22.297Z,24.30
2019-06-20T20:30:53.695Z,24.22
2019-06-20T20:33:23.739Z,24.20
2019-06-20T20:35:53.721Z,24.13
2019-06-20T20:38:23.524Z,24.17
2019-06-20T20:40:53.586Z,24.18
2019-06-20T20:43:23.232Z,24.16
2019-06-20T20:45:53.071Z,23.97
2019-06-20T20:48:22.896Z,23.44
2019-06-20T20:50:52.587Z,22.99
2019-06-20T20:53:22.256Z,23.00
2019-06-20T20:55:52.113Z,22.93
2019-06-20T20:58:23.314Z,23.06
2019-06-20T21:01:05.486Z,23.23
2019-06-20T21:03:35.335Z,23.07
2019-06-20T21:06:05.108Z,23.18
2019-06-20T21:08:35.168Z,23.27
2019-06-20T21:11:05.055Z,23.34
2019-06-20T21:13:35.001Z,23.27
2019-06-20T21:16:05.101Z,23.31
2019-06-20T21:18:34.902Z,23.49
2019-06-20T21:21:05.033Z,23.24
2019-06-20T21:23:35.237Z,23.02
2019-06-20T21:26:05.209Z,23.00
2019-06-20T21:28:35.076Z,23.20
2019-06-20T21:31:05.083Z,23.03
2019-06-20T21:33:34.884Z,22.78
2019-06-20T21:36:08.915Z,22.67
2019-06-20T21:38:36.507Z,22.71
2019-06-20T21:41:06.208Z,22.48
2019-06-20T21:43:35.888Z,22.42
2019-06-20T21:46:06.950Z,22.30
2019-06-20T21:48:36.850Z,22.20
2019-06-20T21:51:06.766Z,21.97
2019-06-20T21:53:37.563Z,21.92
2019-06-20T21:56:07.463Z,22.04
2019-06-20T21:58:37.357Z,21.65
2019-06-20T22:01:09.249Z,21.26
2019-06-20T22:03:39.149Z,21.45
2019-06-20T22:06:22.942Z,21.35
2019-06-20T22:08:40.490Z,21.47
2019-06-20T22:11:10.097Z,21.47
2019-06-20T22:13:41.611Z,21.60
2019-06-20T22:16:11.413Z,21.66
2019-06-20T22:18:41.545Z,21.90
2019-06-20T22:21:11.393Z,21.90
2019-06-20T22:23:41.218Z,21.97
2019-06-20T22:26:11.143Z,22.12
2019-06-20T22:28:41.270Z,22.23
2019-06-20T22:31:11.071Z,22.38
2019-06-20T22:33:40.914Z,22.47
2019-06-20T22:36:10.945Z,22.22
2019-06-20T22:38:40.767Z,22.04
2019-06-20T22:41:10.856Z,22.21
2019-06-20T22:43:40.655Z,22.33
2019-06-20T22:46:10.646Z,22.19
2019-06-20T22:48:40.408Z,22.08
2019-06-20T22:51:13.674Z,22.05
2019-06-20T22:53:43.244Z,22.05
2019-06-20T22:56:13.002Z,21.93
2019-06-20T22:58:42.985Z,22.07
2019-06-20T23:01:12.860Z,21.96
2019-06-20T23:03:42.742Z,21.99
2019-06-20T23:06:12.700Z,21.85
2019-06-20T23:08:42.580Z,21.82
2019-06-20T23:11:12.498Z,21.85
2019-06-20T23:13:42.461Z,21.86
2019-06-20T23:16:12.232Z,21.86
2019-06-20T23:18:41.954Z,21.86
2019-06-20T23:21:11.844Z,21.99
2019-06-20T23:23:41.689Z,21.99
2019-06-20T23:26:12.365Z,21.90
2019-06-20T23:28:42.174Z,21.86
2019-06-20T23:31:11.947Z,21.83
2019-06-20T23:33:41.647Z,21.89
2019-06-20T23:36:11.553Z,21.79
2019-06-20T23:38:41.402Z,21.74
2019-06-20T23:41:11.189Z,21.69
2019-06-20T23:43:40.848Z,21.69
2019-06-20T23:46:10.800Z,21.68
2019-06-20T23:48:40.659Z,21.68
2019-06-20T23:51:24.695Z,21.52
2019-06-20T23:53:42.197Z,21.43
2019-06-20T23:56:12.021Z,21.28
2019-06-20T23:58:41.941Z,20.97
